Alvordton, Ohio
Current Conditions -  °F | °C
As of 1:15 PM on Monday 22 Dec 2014 (Local Time) from KUSE Reporting Station
Overcast Overcast  
Wind Chill: 31°   Ceiling: 9500
Heat Index: 37°   Visibility: 8mi
Dew Point: 30°   Wind: 9mph
Humidity: 75%   Direction: 140°SE
Pressure: 29.95"   Gusts: NA
Location:  41.67°N, 84.44°W
Report Text: KUSE 221815Z AUTO 14008KT 8SM SCT044 OVC095 03/M01 A2995 RMK AO2
Loading
Personal Weather Stations






























Interactive Weather Map New forecast layout! Learn more

10-Day Weather Forecast

Advertisements
Track Severe Weather on mobile